Time;durP1;ratioP1;P1;durP2;ratioP2;P2;SDS_P1;SDS_P2;PMS_P1;PMS_P2;Temp;Humidity;BMP_temperature;BMP_pressure;BME280_temperature;BME280_humidity;BME280_pressure;Samples;Min_cycle;Max_cycle;Signal;HPM_P1;HPM_P2
2023/12/01 00:01:53;;;;;;;25.90;20.13;;;0.30;99.90;;;;;;5058503;28;20194;-68
2023/12/01 00:04:20;;;;;;;31.87;21.63;;;0.30;99.90;;;;;;5073763;28;20581;-67
2023/12/01 00:06:47;;;;;;;30.17;19.37;;;0.20;99.90;;;;;;5065469;28;20692;-67
2023/12/01 00:09:14;;;;;;;32.27;19.70;;;0.00;99.90;;;;;;5057329;28;20194;-67
2023/12/01 00:11:41;;;;;;;29.77;18.87;;;0.00;99.90;;;;;;5073084;28;20242;-68
2023/12/01 00:14:08;;;;;;;31.13;18.77;;;0.00;99.90;;;;;;5054180;28;20555;-68
2023/12/01 00:16:35;;;;;;;26.23;18.33;;;-0.10;99.90;;;;;;5053832;28;20246;-69
2023/12/01 00:19:02;;;;;;;28.17;18.87;;;-0.10;99.90;;;;;;5056144;28;20218;-68
2023/12/01 00:21:29;;;;;;;34.90;20.27;;;-0.10;99.90;;;;;;5079604;28;20194;-67
2023/12/01 00:23:56;;;;;;;33.27;19.43;;;-0.10;99.90;;;;;;5079381;28;20649;-67
2023/12/01 00:26:23;;;;;;;24.03;18.30;;;-0.20;99.90;;;;;;5069424;28;20687;-67
2023/12/01 00:28:56;;;;;;;33.23;20.50;;;-0.20;99.90;;;;;;5064535;28;20205;-67
2023/12/01 00:31:23;;;;;;;22.77;18.23;;;-0.10;99.90;;;;;;5060684;28;20242;-68
2023/12/01 00:33:51;;;;;;;27.53;19.43;;;-0.10;99.90;;;;;;5053174;28;20222;-67
2023/12/01 00:36:18;;;;;;;28.73;18.43;;;-0.10;99.90;;;;;;5082927;28;20609;-67
2023/12/01 00:38:45;;;;;;;29.57;19.07;;;-0.20;99.90;;;;;;5077784;28;20756;-66
2023/12/01 00:41:12;;;;;;;35.27;20.10;;;-0.30;99.90;;;;;;5049868;28;20245;-65
2023/12/01 00:43:39;;;;;;;24.90;19.17;;;-0.40;99.90;;;;;;5073474;28;20686;-62
2023/12/01 00:46:06;;;;;;;31.40;17.53;;;-0.50;99.90;;;;;;5055857;28;20257;-65
2023/12/01 00:48:33;;;;;;;27.17;17.97;;;-0.60;99.90;;;;;;5084403;28;20282;-64
2023/12/01 00:51:02;;;;;;;25.10;17.77;;;-0.60;99.90;;;;;;5074712;28;20184;-64
2023/12/01 00:53:29;;;;;;;27.10;17.47;;;-0.60;99.90;;;;;;5082195;28;20793;-64
2023/12/01 00:55:56;;;;;;;23.40;17.60;;;-0.40;99.90;;;;;;5067328;28;20192;-67
2023/12/01 00:58:24;;;;;;;26.23;16.50;;;-0.50;99.90;;;;;;5035417;28;20191;-63
2023/12/01 01:00:51;;;;;;;24.60;15.93;;;-0.40;99.90;;;;;;5051106;28;20199;-65
2023/12/01 01:03:18;;;;;;;23.03;17.17;;;-0.50;99.90;;;;;;5076310;28;20203;-65
2023/12/01 01:05:55;;;;;;;23.47;15.80;;;-0.50;99.90;;;;;;5064452;28;20711;-65
2023/12/01 01:08:23;;;;;;;24.93;15.53;;;-0.50;99.90;;;;;;5052330;28;20198;-65
2023/12/01 01:10:51;;;;;;;26.40;16.80;;;-0.50;99.90;;;;;;5052837;28;20299;-64
2023/12/01 01:13:18;;;;;;;24.13;17.67;;;-0.50;99.90;;;;;;5057309;28;20247;-67
2023/12/01 01:15:44;;;;;;;22.13;15.63;;;-0.50;99.90;;;;;;5071561;28;20195;-63
2023/12/01 01:18:11;;;;;;;24.53;16.77;;;-0.50;99.90;;;;;;5053993;28;20273;-64
2023/12/01 01:20:38;;;;;;;23.90;16.63;;;-0.50;99.90;;;;;;5082514;28;20265;-63
2023/12/01 01:23:05;;;;;;;26.53;16.73;;;-0.50;99.90;;;;;;5040466;28;20662;-66
2023/12/01 01:25:32;;;;;;;32.43;19.03;;;-0.50;99.90;;;;;;5061766;28;20286;-66
2023/12/01 01:28:00;;;;;;;31.07;17.23;;;-0.60;99.90;;;;;;5034653;28;20203;-67
2023/12/01 01:30:26;;;;;;;29.73;18.30;;;-0.50;99.90;;;;;;5045185;28;20194;-67
2023/12/01 01:32:53;;;;;;;33.07;17.87;;;-0.60;99.90;;;;;;5075740;28;20277;-67
2023/12/01 01:35:20;;;;;;;31.50;17.93;;;-0.60;99.90;;;;;;5050732;28;20533;-67
2023/12/01 01:37:47;;;;;;;26.63;16.93;;;-0.60;99.90;;;;;;5057033;28;20213;-67
2023/12/01 01:40:14;;;;;;;27.27;17.50;;;-0.60;99.90;;;;;;5079115;28;20194;-67
2023/12/01 01:42:41;;;;;;;24.97;15.87;;;-0.60;99.90;;;;;;5059528;28;20196;-68
2023/12/01 01:45:09;;;;;;;35.13;18.27;;;-0.60;99.90;;;;;;5050784;28;20219;-67
2023/12/01 01:47:36;;;;;;;28.80;17.13;;;-0.60;99.90;;;;;;5049113;28;20249;-67
2023/12/01 01:50:06;;;;;;;29.80;17.63;;;-0.50;99.90;;;;;;5068264;28;20182;-67
2023/12/01 01:52:35;;;;;;;22.97;15.47;;;-0.50;99.90;;;;;;5046653;28;21103;-67
2023/12/01 01:55:03;;;;;;;33.93;17.87;;;-0.50;99.90;;;;;;5050152;28;20256;-68
2023/12/01 01:57:40;;;;;;;38.80;17.97;;;-0.60;99.90;;;;;;5066417;28;20222;-66
2023/12/01 02:00:07;;;;;;;28.77;17.10;;;-0.50;99.90;;;;;;5046098;28;20513;-67
2023/12/01 02:02:40;;;;;;;29.70;17.63;;;-0.50;99.90;;;;;;5042748;28;20198;-66
2023/12/01 02:05:13;;;;;;;32.23;18.17;;;-0.50;99.90;;;;;;5035538;28;20203;-67
2023/12/01 02:07:41;;;;;;;28.13;17.23;;;-0.40;99.90;;;;;;5055486;28;20288;-66
2023/12/01 02:10:15;;;;;;;31.73;19.10;;;-0.40;99.90;;;;;;5045353;28;20187;-66
2023/12/01 02:12:44;;;;;;;36.93;18.87;;;-0.50;99.90;;;;;;5058710;28;20219;-66
2023/12/01 02:15:13;;;;;;;30.20;18.93;;;-0.60;99.90;;;;;;5051204;28;20199;-66
2023/12/01 02:17:40;;;;;;;32.40;19.20;;;-0.60;99.90;;;;;;5050825;28;20280;-63
2023/12/01 02:20:14;;;;;;;30.30;19.10;;;-0.50;99.90;;;;;;5066410;28;20187;-63
2023/12/01 02:22:43;;;;;;;28.20;17.53;;;-0.50;99.90;;;;;;5050456;28;20187;-62
2023/12/01 02:25:11;;;;;;;36.00;19.17;;;-0.50;99.90;;;;;;5051252;28;20260;-61
2023/12/01 02:27:38;;;;;;;36.00;19.07;;;-0.50;99.90;;;;;;5064890;28;20194;-66
2023/12/01 02:30:05;;;;;;;31.93;17.90;;;-0.60;99.90;;;;;;5037168;28;20200;-66
2023/12/01 02:32:33;;;;;;;31.33;19.17;;;-0.70;99.90;;;;;;5064741;28;20197;-66
2023/12/01 02:35:00;;;;;;;35.73;18.50;;;-0.70;99.90;;;;;;5053735;28;20208;-66
2023/12/01 02:37:27;;;;;;;38.00;20.97;;;-0.60;99.90;;;;;;5080556;28;20210;-65
2023/12/01 02:39:53;;;;;;;24.97;17.33;;;-0.60;99.90;;;;;;5076040;28;20201;-65
2023/12/01 02:42:20;;;;;;;31.37;17.27;;;-0.50;99.90;;;;;;5052413;28;20592;-65
2023/12/01 02:44:47;;;;;;;24.67;17.97;;;-0.50;99.90;;;;;;5071715;28;20200;-69
2023/12/01 02:47:14;;;;;;;33.10;19.60;;;-0.50;99.90;;;;;;5069743;28;20198;-69
2023/12/01 02:49:41;;;;;;;43.80;20.40;;;-0.40;99.90;;;;;;5036336;28;20201;-65
2023/12/01 02:52:08;;;;;;;35.87;20.13;;;-0.40;99.90;;;;;;5045980;28;20222;-66
2023/12/01 02:54:35;;;;;;;42.83;20.53;;;-0.40;99.90;;;;;;5052804;28;20195;-68
2023/12/01 02:57:03;;;;;;;40.70;19.43;;;-0.40;99.90;;;;;;5055818;28;20229;-68
2023/12/01 02:59:30;;;;;;;34.17;19.50;;;-0.40;99.90;;;;;;5050503;28;20252;-66
2023/12/01 03:05:57;;;;;;;28.67;18.77;;;-0.40;99.90;;;;;;5067858;28;20201;-65
2023/12/01 03:08:24;;;;;;;38.83;21.60;;;-0.40;99.90;;;;;;5061411;28;20187;-67
2023/12/01 03:10:53;;;;;;;33.37;19.07;;;-0.60;99.90;;;;;;5066442;28;20597;-66
2023/12/01 03:13:22;;;;;;;37.63;22.60;;;-0.50;99.90;;;;;;5049976;28;20556;-66
2023/12/01 03:15:49;;;;;;;36.67;19.17;;;-0.40;99.90;;;;;;5042224;28;20191;-66
2023/12/01 03:18:20;;;;;;;48.57;21.40;;;-0.40;99.90;;;;;;5049541;28;20289;-67
2023/12/01 03:20:50;;;;;;;41.70;18.70;;;-0.40;99.90;;;;;;5069761;28;20189;-68
2023/12/01 03:23:17;;;;;;;35.27;21.20;;;-0.40;99.90;;;;;;5050780;28;20210;-69
2023/12/01 03:25:44;;;;;;;34.53;21.33;;;-0.40;99.90;;;;;;5071969;28;20175;-68
2023/12/01 03:28:11;;;;;;;42.03;20.40;;;-0.40;99.90;;;;;;5054559;28;20190;-66
2023/12/01 03:30:38;;;;;;;32.43;19.27;;;-0.40;99.90;;;;;;5061462;28;20206;-68
2023/12/01 03:33:05;;;;;;;44.40;21.30;;;-0.30;99.90;;;;;;5051990;28;20680;-67
2023/12/01 03:35:32;;;;;;;39.37;20.40;;;-0.30;99.90;;;;;;5059083;28;20661;-67
2023/12/01 03:38:00;;;;;;;42.40;19.67;;;-0.30;99.90;;;;;;5050548;28;20199;-66
2023/12/01 03:40:27;;;;;;;35.60;20.50;;;-0.30;99.90;;;;;;5050201;28;20583;-66
2023/12/01 03:42:54;;;;;;;43.33;21.83;;;-0.30;99.90;;;;;;5081855;28;20194;-66
2023/12/01 03:45:22;;;;;;;42.67;23.03;;;-0.20;99.90;;;;;;5077668;28;20230;-66
2023/12/01 03:47:51;;;;;;;39.30;20.60;;;-0.20;99.90;;;;;;5058008;28;20240;-66
2023/12/01 03:50:19;;;;;;;45.80;21.67;;;-0.20;99.90;;;;;;5060199;28;20200;-66
2023/12/01 03:52:49;;;;;;;39.07;20.00;;;-0.20;99.90;;;;;;5066634;28;20497;-66
2023/12/01 03:55:16;;;;;;;34.80;20.83;;;-0.40;99.90;;;;;;5078961;28;20198;-66
2023/12/01 03:57:44;;;;;;;40.57;21.90;;;-0.30;99.90;;;;;;5048995;28;20219;-66
2023/12/01 04:00:14;;;;;;;41.07;20.70;;;-0.30;99.90;;;;;;5062976;28;20858;-66
2023/12/01 04:02:43;;;;;;;36.77;21.97;;;-0.30;99.90;;;;;;5052986;28;20603;-66
2023/12/01 04:05:17;;;;;;;39.50;19.80;;;-0.30;99.90;;;;;;5077381;28;20224;-68
2023/12/01 04:07:52;;;;;;;38.70;20.93;;;-0.50;99.90;;;;;;5050608;28;21025;-68
2023/12/01 04:10:24;;;;;;;39.57;21.93;;;-0.50;99.90;;;;;;5044906;28;20220;-67
2023/12/01 04:12:52;;;;;;;38.87;21.47;;;-0.50;99.90;;;;;;5067534;28;20274;-69
2023/12/01 04:15:20;;;;;;;35.73;20.23;;;-0.50;99.90;;;;;;5053561;28;20714;-69
2023/12/01 04:17:49;;;;;;;39.27;18.87;;;-0.70;99.90;;;;;;5068736;28;20587;-66
2023/12/01 04:20:21;;;;;;;35.27;18.57;;;-0.70;99.90;;;;;;5067543;28;20187;-66
2023/12/01 04:22:50;;;;;;;31.30;19.17;;;-0.60;99.90;;;;;;5051764;28;20199;-65
2023/12/01 04:25:18;;;;;;;30.10;19.17;;;-0.80;99.90;;;;;;5054161;28;20300;-67
2023/12/01 04:27:47;;;;;;;37.03;20.23;;;-0.80;99.90;;;;;;5052448;28;20254;-67
2023/12/01 04:30:15;;;;;;;47.60;20.20;;;-0.70;99.90;;;;;;5036155;28;20531;-68
2023/12/01 04:32:48;;;;;;;42.07;20.10;;;-0.60;99.90;;;;;;5066598;28;20639;-67
2023/12/01 04:35:15;;;;;;;37.93;19.80;;;-0.70;99.90;;;;;;5049900;28;20386;-67
2023/12/01 04:37:42;;;;;;;32.17;17.50;;;-0.80;99.90;;;;;;5046311;28;20234;-67
2023/12/01 04:40:14;;;;;;;40.30;20.70;;;-0.90;99.90;;;;;;5054123;28;20201;-68
2023/12/01 04:42:46;;;;;;;40.90;17.97;;;-0.80;99.90;;;;;;5052305;28;20194;-65
2023/12/01 04:45:17;;;;;;;36.07;18.37;;;-0.80;99.90;;;;;;5036535;28;20610;-63
2023/12/01 04:47:50;;;;;;;35.97;19.10;;;-0.80;99.90;;;;;;5065697;28;20209;-63
2023/12/01 04:50:22;;;;;;;42.97;20.00;;;-0.70;99.90;;;;;;5049354;28;20219;-64
2023/12/01 04:52:52;;;;;;;34.63;17.30;;;-0.80;99.90;;;;;;5045173;28;20667;-64
2023/12/01 04:55:22;;;;;;;27.23;16.50;;;-0.70;99.90;;;;;;5081707;28;20853;-64
2023/12/01 04:57:49;;;;;;;36.20;19.43;;;-0.70;99.90;;;;;;5078271;28;20327;-64
2023/12/01 05:00:22;;;;;;;34.07;17.27;;;-0.60;99.90;;;;;;5061135;28;20208;-64
2023/12/01 05:02:51;;;;;;;32.83;18.57;;;-0.60;99.90;;;;;;5038088;28;20199;-64
2023/12/01 05:05:23;;;;;;;39.33;17.83;;;-0.60;99.90;;;;;;5041238;28;20309;-64
2023/12/01 05:07:52;;;;;;;39.70;18.43;;;-0.60;99.90;;;;;;5058630;28;20198;-67
2023/12/01 05:10:21;;;;;;;38.27;19.40;;;-0.40;99.90;;;;;;5076730;28;20224;-66
2023/12/01 05:12:50;;;;;;;42.50;20.07;;;-0.50;99.90;;;;;;5061665;28;20297;-65
2023/12/01 05:15:19;;;;;;;40.63;18.80;;;-0.40;99.90;;;;;;5066831;28;20214;-64
2023/12/01 05:17:51;;;;;;;39.77;19.50;;;-0.30;99.90;;;;;;5053885;28;20202;-62
2023/12/01 05:20:19;;;;;;;40.07;19.20;;;-0.50;99.90;;;;;;5077042;28;20511;-62
2023/12/01 05:22:48;;;;;;;42.50;19.80;;;-0.50;99.90;;;;;;5040963;28;20275;-62
2023/12/01 05:25:17;;;;;;;46.60;19.87;;;-0.40;99.90;;;;;;5053814;28;20293;-62
2023/12/01 05:27:55;;;;;;;43.63;20.00;;;-0.40;99.90;;;;;;5040802;28;20198;-65
2023/12/01 05:30:24;;;;;;;33.93;19.97;;;-0.30;99.90;;;;;;5062339;28;20312;-62
2023/12/01 05:32:52;;;;;;;29.83;19.73;;;-0.20;99.90;;;;;;5044528;28;20352;-63
2023/12/01 05:35:20;;;;;;;31.73;19.13;;;-0.10;99.90;;;;;;5076389;28;20718;-67
2023/12/01 05:37:49;;;;;;;35.77;19.47;;;0.00;99.90;;;;;;5063053;28;20664;-67
2023/12/01 05:40:16;;;;;;;36.37;20.53;;;0.00;99.90;;;;;;5072117;28;20217;-67
2023/12/01 05:42:44;;;;;;;34.77;19.53;;;0.00;99.90;;;;;;5070693;28;20257;-67
2023/12/01 05:45:12;;;;;;;38.77;20.20;;;0.00;99.90;;;;;;5054446;28;20211;-67
2023/12/01 05:47:44;;;;;;;36.67;20.53;;;0.00;99.90;;;;;;5054734;28;20191;-67
2023/12/01 05:50:20;;;;;;;45.03;19.07;;;0.10;99.90;;;;;;5055970;28;20191;-67
2023/12/01 05:52:48;;;;;;;37.10;19.80;;;0.20;99.90;;;;;;5072801;28;20187;-67
2023/12/01 05:55:24;;;;;;;37.60;21.70;;;0.20;99.90;;;;;;5065985;28;20191;-67
2023/12/01 05:57:52;;;;;;;31.97;19.73;;;0.20;99.90;;;;;;5071745;28;20221;-67
2023/12/01 06:00:30;;;;;;;36.10;20.57;;;0.20;99.90;;;;;;5075820;28;20199;-67
2023/12/01 06:03:02;;;;;;;47.80;22.23;;;0.20;99.90;;;;;;5035972;28;20548;-67
2023/12/01 06:05:29;;;;;;;39.73;21.20;;;0.20;99.90;;;;;;5074996;28;20205;-67
2023/12/01 06:07:58;;;;;;;40.50;20.63;;;0.20;99.90;;;;;;5062712;28;20558;-67
2023/12/01 06:10:27;;;;;;;37.27;20.83;;;0.20;99.90;;;;;;5071408;28;20203;-67
2023/12/01 06:12:55;;;;;;;34.93;21.27;;;0.20;99.90;;;;;;5072154;28;20206;-68
2023/12/01 06:15:24;;;;;;;27.27;19.40;;;0.00;99.90;;;;;;5069898;28;20195;-69
2023/12/01 06:17:52;;;;;;;35.60;20.43;;;0.10;99.90;;;;;;5051395;28;20286;-67
2023/12/01 06:20:22;;;;;;;36.87;21.27;;;0.10;99.90;;;;;;5058508;28;20191;-66
2023/12/01 06:22:51;;;;;;;46.73;23.10;;;0.20;99.90;;;;;;5066406;28;20233;-66
2023/12/01 06:25:29;;;;;;;34.03;22.37;;;0.30;99.90;;;;;;5074343;28;20485;-63
2023/12/01 06:28:01;;;;;;;37.87;20.37;;;0.40;99.90;;;;;;5045032;28;20191;-65
2023/12/01 06:30:34;;;;;;;40.20;22.40;;;0.40;99.90;;;;;;5061771;28;20742;-65
2023/12/01 06:33:06;;;;;;;37.37;21.13;;;0.40;99.90;;;;;;5064764;28;20269;-66
2023/12/01 06:35:33;;;;;;;33.73;23.30;;;0.30;99.90;;;;;;5065437;28;20202;-64
2023/12/01 06:38:00;;;;;;;44.20;25.13;;;0.30;99.90;;;;;;5071951;28;20225;-66
2023/12/01 06:40:27;;;;;;;39.60;24.53;;;0.40;99.90;;;;;;5061900;28;20218;-65
2023/12/01 06:42:55;;;;;;;43.80;27.13;;;0.30;99.90;;;;;;5064118;28;20242;-65
2023/12/01 06:45:26;;;;;;;37.47;24.67;;;0.30;99.90;;;;;;5081813;28;20305;-69
2023/12/01 06:47:58;;;;;;;35.53;22.90;;;0.30;99.90;;;;;;5075074;28;20209;-69
2023/12/01 06:50:26;;;;;;;37.53;23.17;;;0.30;99.90;;;;;;5059480;28;20298;-68
2023/12/01 06:52:54;;;;;;;36.37;21.30;;;0.30;99.90;;;;;;5080016;28;20194;-65
2023/12/01 06:55:21;;;;;;;33.77;21.80;;;0.30;99.90;;;;;;5078138;28;20685;-62
2023/12/01 06:57:49;;;;;;;32.67;23.33;;;0.30;99.90;;;;;;5082002;28;20353;-62
2023/12/01 07:03:06;;;;;;;27.77;20.27;;;0.10;99.90;;;;;;5077007;28;20199;-62
2023/12/01 07:05:35;;;;;;;31.90;22.23;;;0.10;99.90;;;;;;5079496;28;20557;-66
2023/12/01 07:08:06;;;;;;;32.37;22.83;;;0.10;99.90;;;;;;5071992;28;20203;-69
2023/12/01 07:10:33;;;;;;;42.03;23.23;;;0.20;99.90;;;;;;5077741;28;20247;-69
2023/12/01 07:13:00;;;;;;;34.77;21.57;;;0.30;99.90;;;;;;5058979;28;20195;-69
2023/12/01 07:15:29;;;;;;;32.03;23.50;;;0.30;99.90;;;;;;5037139;28;20207;-69
2023/12/01 07:17:58;;;;;;;29.83;21.43;;;0.30;99.90;;;;;;5033850;28;20254;-68
2023/12/01 07:20:25;;;;;;;36.83;22.77;;;0.30;99.90;;;;;;5088422;28;20258;-68
2023/12/01 07:22:53;;;;;;;32.80;21.87;;;0.20;99.90;;;;;;5069300;28;20230;-66
2023/12/01 07:25:21;;;;;;;35.23;24.37;;;0.30;99.90;;;;;;5087365;28;20264;-66
2023/12/01 07:27:57;;;;;;;32.57;22.87;;;0.30;99.90;;;;;;5084233;28;20190;-67
2023/12/01 07:30:27;;;;;;;38.13;23.10;;;0.20;99.90;;;;;;5063745;28;20194;-67
2023/12/01 07:32:55;;;;;;;48.60;27.20;;;0.20;99.90;;;;;;5064306;28;20654;-69
2023/12/01 07:35:22;;;;;;;41.13;25.73;;;0.20;99.90;;;;;;5072185;28;20194;-68
2023/12/01 07:37:52;;;;;;;30.57;22.80;;;0.20;99.90;;;;;;5063172;28;20277;-69
2023/12/01 07:40:21;;;;;;;29.53;22.67;;;0.20;99.90;;;;;;5067714;28;20269;-69
2023/12/01 07:42:50;;;;;;;30.63;24.67;;;0.10;99.90;;;;;;5050265;28;20191;-68
2023/12/01 07:45:18;;;;;;;41.53;26.00;;;0.10;99.90;;;;;;5068521;28;20592;-68
2023/12/01 07:47:46;;;;;;;36.00;22.07;;;0.10;99.90;;;;;;5055160;28;20225;-68
2023/12/01 07:50:14;;;;;;;34.73;24.10;;;0.20;99.90;;;;;;5050575;28;20194;-69
2023/12/01 07:52:43;;;;;;;34.90;23.23;;;0.20;99.90;;;;;;5049694;28;20195;-69
2023/12/01 07:55:10;;;;;;;33.00;21.10;;;0.10;99.90;;;;;;5068038;28;20186;-64
2023/12/01 07:57:38;;;;;;;29.67;21.53;;;0.10;99.90;;;;;;5067025;28;20261;-66
2023/12/01 08:00:14;;;;;;;34.00;22.63;;;0.00;99.90;;;;;;5067610;28;20193;-64
2023/12/01 08:02:46;;;;;;;33.20;22.77;;;0.00;99.90;;;;;;5052239;28;20332;-63
2023/12/01 08:05:16;;;;;;;33.50;23.00;;;0.10;99.90;;;;;;5051202;28;20287;-65
2023/12/01 08:07:45;;;;;;;28.20;21.40;;;0.10;99.90;;;;;;5056255;28;20737;-65
2023/12/01 08:10:15;;;;;;;34.10;22.07;;;0.10;99.90;;;;;;5079347;28;20190;-66
2023/12/01 08:12:45;;;;;;;38.80;24.87;;;0.10;99.90;;;;;;5076516;28;20307;-63
2023/12/01 08:15:12;;;;;;;29.73;22.40;;;0.00;99.90;;;;;;5059931;28;20572;-66
2023/12/01 08:17:40;;;;;;;25.00;21.97;;;0.00;99.90;;;;;;5058663;28;20202;-65
2023/12/01 08:20:08;;;;;;;26.47;20.60;;;0.00;99.90;;;;;;5047842;28;20214;-65
2023/12/01 08:22:35;;;;;;;24.90;20.73;;;0.10;99.90;;;;;;5085243;28;20204;-65
2023/12/01 08:25:03;;;;;;;24.70;21.37;;;0.00;99.90;;;;;;5066323;28;20220;-64
2023/12/01 08:27:31;;;;;;;25.07;20.30;;;-0.10;99.90;;;;;;5071377;28;20201;-64
2023/12/01 08:29:58;;;;;;;25.00;19.50;;;-0.10;99.90;;;;;;5072239;28;20198;-65
2023/12/01 08:32:25;;;;;;;27.67;19.73;;;-0.20;99.90;;;;;;5061161;28;20222;-65
2023/12/01 08:34:54;;;;;;;28.67;24.47;;;-0.30;99.90;;;;;;5090902;28;20301;-64
2023/12/01 08:37:21;;;;;;;25.83;19.63;;;-0.30;99.90;;;;;;5068246;28;20198;-63
2023/12/01 08:39:49;;;;;;;24.60;20.10;;;-0.30;99.90;;;;;;5081393;28;20197;-66
2023/12/01 08:42:18;;;;;;;29.00;21.07;;;-0.30;99.90;;;;;;5062969;28;20191;-65
2023/12/01 08:44:48;;;;;;;25.13;21.50;;;-0.30;99.90;;;;;;5066036;28;20198;-68
2023/12/01 08:47:19;;;;;;;31.33;21.67;;;-0.20;99.90;;;;;;5052730;28;20183;-70
2023/12/01 08:49:49;;;;;;;24.80;19.17;;;-0.10;99.90;;;;;;5065682;28;20254;-66
2023/12/01 08:52:16;;;;;;;33.83;19.37;;;-0.10;99.90;;;;;;5048913;28;20232;-65
2023/12/01 08:54:43;;;;;;;28.53;21.47;;;-0.10;99.90;;;;;;5053287;28;20295;-63
2023/12/01 08:57:10;;;;;;;25.57;20.27;;;-0.10;99.90;;;;;;5073620;28;20579;-63
2023/12/01 08:59:37;;;;;;;24.37;19.90;;;-0.10;99.90;;;;;;5078289;28;20210;-64
2023/12/01 09:02:05;;;;;;;27.90;19.63;;;-0.20;99.90;;;;;;5084017;28;20644;-63
2023/12/01 09:04:38;;;;;;;26.40;18.93;;;-0.30;99.90;;;;;;5065899;28;20650;-68
2023/12/01 09:07:05;;;;;;;27.00;19.77;;;-0.20;99.90;;;;;;5070368;28;20210;-68
2023/12/01 09:09:34;;;;;;;25.60;17.57;;;-0.20;99.90;;;;;;5077150;28;20214;-69
2023/12/01 09:12:01;;;;;;;27.60;20.40;;;-0.20;99.90;;;;;;5089347;28;20228;-66
2023/12/01 09:14:29;;;;;;;26.47;18.43;;;-0.10;99.90;;;;;;5073630;28;20197;-67
2023/12/01 09:16:56;;;;;;;26.70;20.03;;;0.00;99.90;;;;;;5071740;28;20277;-68
2023/12/01 09:19:23;;;;;;;22.97;18.63;;;0.00;99.90;;;;;;5048667;28;20577;-68
2023/12/01 09:21:50;;;;;;;24.00;19.67;;;0.00;99.90;;;;;;5054658;28;20195;-68
2023/12/01 09:24:17;;;;;;;33.30;21.80;;;0.10;99.90;;;;;;5072945;28;20190;-68
2023/12/01 09:26:45;;;;;;;24.63;20.10;;;0.10;99.90;;;;;;5057939;28;20291;-68
2023/12/01 09:29:11;;;;;;;25.23;20.20;;;0.00;99.90;;;;;;5090220;28;20942;-68
2023/12/01 09:31:43;;;;;;;28.37;21.17;;;-0.10;99.90;;;;;;5043742;28;20620;-68
2023/12/01 09:34:10;;;;;;;23.87;19.73;;;-0.20;99.90;;;;;;5077473;28;20215;-67
2023/12/01 09:36:38;;;;;;;24.17;20.70;;;-0.20;99.90;;;;;;5060206;28;20282;-68
2023/12/01 09:39:05;;;;;;;24.67;18.70;;;-0.10;99.90;;;;;;5077060;28;20207;-68
2023/12/01 09:41:36;;;;;;;21.73;18.07;;;-0.20;99.90;;;;;;5069070;28;20666;-68
2023/12/01 09:44:03;;;;;;;21.37;19.13;;;-0.20;99.90;;;;;;5077997;28;20969;-68
2023/12/01 09:46:39;;;;;;;23.23;18.80;;;-0.20;99.90;;;;;;5059090;28;20219;-68
2023/12/01 09:49:07;;;;;;;19.70;17.67;;;-0.20;99.90;;;;;;5044703;28;20229;-68
2023/12/01 09:51:36;;;;;;;22.13;18.67;;;-0.10;99.90;;;;;;5052155;28;20210;-68
2023/12/01 09:54:03;;;;;;;27.90;20.33;;;-0.20;99.90;;;;;;5060946;28;20207;-68
2023/12/01 09:56:31;;;;;;;29.10;21.70;;;-0.20;99.90;;;;;;5064905;28;20222;-65
2023/12/01 09:58:59;;;;;;;33.30;22.97;;;-0.30;99.90;;;;;;5078220;28;20214;-65
2023/12/01 10:01:27;;;;;;;25.27;18.63;;;-0.20;99.90;;;;;;5079983;28;20190;-64
2023/12/01 10:03:54;;;;;;;27.93;19.47;;;-0.20;99.90;;;;;;5045820;28;20198;-63
2023/12/01 10:06:22;;;;;;;23.40;18.70;;;-0.20;99.90;;;;;;5068185;28;20259;-62
2023/12/01 10:08:49;;;;;;;21.30;18.97;;;-0.30;99.90;;;;;;5073054;28;20207;-62
2023/12/01 10:11:23;;;;;;;26.33;19.60;;;-0.20;99.90;;;;;;5075821;28;20554;-64
2023/12/01 10:13:51;;;;;;;24.80;19.53;;;0.00;99.90;;;;;;5063147;28;20202;-62
2023/12/01 10:16:19;;;;;;;24.57;19.03;;;0.00;99.90;;;;;;5082374;28;20239;-65
2023/12/01 10:19:13;;;;;;;23.70;21.17;;;-0.20;99.90;;;;;;5044567;28;20392;-66
2023/12/01 10:21:44;;;;;;;25.97;19.10;;;-0.10;99.90;;;;;;5067765;28;20211;-66
2023/12/01 10:24:15;;;;;;;25.03;19.43;;;-0.20;99.90;;;;;;5064600;28;20207;-66
2023/12/01 10:26:44;;;;;;;23.63;18.97;;;-0.30;99.90;;;;;;5087144;28;20202;-66
2023/12/01 10:29:28;;;;;;;24.70;18.97;;;-0.30;99.90;;;;;;5083839;28;20245;-66
2023/12/01 10:32:02;;;;;;;24.87;18.73;;;-0.20;99.90;;;;;;5081263;28;20210;-66
2023/12/01 10:34:29;;;;;;;22.50;20.17;;;-0.20;99.90;;;;;;5046581;28;20250;-66
2023/12/01 10:36:56;;;;;;;29.80;19.13;;;-0.20;99.90;;;;;;5055968;28;20190;-66
2023/12/01 10:39:25;;;;;;;28.40;20.37;;;-0.30;99.90;;;;;;5043696;28;20297;-66
2023/12/01 10:41:54;;;;;;;26.73;20.87;;;-0.30;99.90;;;;;;5081891;28;20582;-65
2023/12/01 10:44:28;;;;;;;22.63;18.53;;;-0.20;99.90;;;;;;5066269;28;20642;-65
2023/12/01 10:46:55;;;;;;;34.90;19.97;;;-0.20;99.90;;;;;;5077199;28;20213;-65
2023/12/01 10:49:23;;;;;;;24.57;19.00;;;-0.20;99.90;;;;;;5081615;28;20275;-67
2023/12/01 10:51:54;;;;;;;23.30;19.50;;;-0.10;99.90;;;;;;5081599;28;20274;-66
2023/12/01 10:54:23;;;;;;;23.33;19.17;;;0.00;99.90;;;;;;5061382;28;20194;-66
2023/12/01 10:57:12;;;;;;;27.70;20.13;;;0.00;99.90;;;;;;5068184;28;20545;-67
2023/12/01 10:59:42;;;;;;;24.20;19.87;;;0.10;99.90;;;;;;5050830;28;20667;-68
2023/12/01 11:02:13;;;;;;;23.97;20.80;;;0.10;99.90;;;;;;5068871;28;20217;-68
2023/12/01 11:04:44;;;;;;;25.10;19.30;;;0.10;99.90;;;;;;5051544;28;20203;-68
2023/12/01 11:07:25;;;;;;;25.83;19.90;;;0.10;99.90;;;;;;5042123;28;20401;-68
2023/12/01 11:10:00;;;;;;;25.90;19.73;;;0.10;99.90;;;;;;5047610;28;20199;-67
2023/12/01 11:12:41;;;;;;;23.23;19.93;;;0.10;99.90;;;;;;5059679;28;20241;-67
2023/12/01 11:15:19;;;;;;;20.87;18.40;;;0.10;99.90;;;;;;5050889;28;20256;-68
2023/12/01 11:17:46;;;;;;;25.33;19.27;;;0.10;99.90;;;;;;5050762;28;20286;-69
2023/12/01 11:20:37;;;;;;;24.27;18.67;;;0.20;99.90;;;;;;5033818;28;20683;-69
2023/12/01 11:23:13;;;;;;;22.57;18.57;;;0.30;99.90;;;;;;5049426;28;20205;-69
2023/12/01 11:25:46;;;;;;;20.47;18.30;;;0.30;99.90;;;;;;5064454;28;20235;-64
2023/12/01 11:28:21;;;;;;;29.27;18.90;;;0.30;99.90;;;;;;5073561;28;20194;-65
2023/12/01 11:31:49;;;;;;;33.00;20.33;;;0.10;99.90;;;;;;5068777;28;20756;-64
2023/12/01 11:33:51;;;;;;;23.50;21.00;;;0.10;99.90;;;;;;5040056;28;20207;-65
2023/12/01 11:36:24;;;;;;;23.13;20.67;;;0.30;99.90;;;;;;5061196;28;20635;-64
2023/12/01 11:39:10;;;;;;;25.40;20.17;;;0.30;99.90;;;;;;5051962;28;20203;-63
2023/12/01 11:41:47;;;;;;;28.43;19.57;;;0.30;99.90;;;;;;5047594;28;20194;-65
2023/12/01 11:44:29;;;;;;;25.13;20.20;;;0.20;99.90;;;;;;5074727;28;20656;-65
2023/12/01 11:46:58;;;;;;;24.93;20.30;;;0.10;99.90;;;;;;5053163;28;20249;-64
2023/12/01 11:49:31;;;;;;;22.07;19.57;;;0.10;99.90;;;;;;5066979;28;20298;-64
2023/12/01 11:52:00;;;;;;;22.13;19.70;;;0.20;99.90;;;;;;5073747;28;20221;-65
2023/12/01 11:54:32;;;;;;;24.17;19.53;;;0.10;99.90;;;;;;5056950;28;20190;-66
2023/12/01 11:56:59;;;;;;;22.63;19.27;;;0.20;99.90;;;;;;5067651;28;20234;-64
2023/12/01 11:59:26;;;;;;;23.57;20.17;;;0.40;99.90;;;;;;5060997;28;20209;-65
2023/12/01 12:01:54;;;;;;;27.20;20.57;;;0.10;99.90;;;;;;5083713;28;20186;-64
2023/12/01 12:04:22;;;;;;;34.83;24.37;;;0.10;99.90;;;;;;5061691;28;20285;-64
2023/12/01 12:06:50;;;;;;;24.40;20.23;;;0.20;99.90;;;;;;5090568;28;20654;-63
2023/12/01 12:09:17;;;;;;;28.63;21.50;;;0.30;99.90;;;;;;5079155;28;20199;-62
2023/12/01 12:11:48;;;;;;;23.67;20.03;;;0.40;99.90;;;;;;5085436;28;20230;-63
2023/12/01 12:14:15;;;;;;;23.60;20.30;;;0.40;99.90;;;;;;5058790;28;20753;-63
2023/12/01 12:16:44;;;;;;;27.53;21.23;;;0.40;99.90;;;;;;5044247;28;20197;-66
2023/12/01 12:19:11;;;;;;;27.47;21.50;;;0.30;99.90;;;;;;5049683;28;20515;-66
2023/12/01 12:21:39;;;;;;;26.43;19.40;;;0.30;99.90;;;;;;5071782;28;20281;-66
2023/12/01 12:24:06;;;;;;;26.47;20.07;;;0.20;99.90;;;;;;5049188;28;20203;-66
2023/12/01 12:26:33;;;;;;;24.67;18.67;;;0.10;99.90;;;;;;5084266;28;20292;-66
2023/12/01 12:29:02;;;;;;;23.60;18.97;;;0.10;99.90;;;;;;5070372;28;20290;-66
2023/12/01 12:31:35;;;;;;;22.70;18.70;;;0.10;99.90;;;;;;5073743;28;20194;-66
2023/12/01 12:34:06;;;;;;;20.60;18.30;;;0.20;99.90;;;;;;5078080;28;20199;-66
2023/12/01 12:36:37;;;;;;;22.00;18.43;;;0.40;99.90;;;;;;5067952;28;20308;-63
2023/12/01 12:39:06;;;;;;;19.23;17.27;;;0.40;99.90;;;;;;5079782;28;20198;-63
2023/12/01 12:41:36;;;;;;;20.23;17.63;;;0.40;99.90;;;;;;5078974;28;20195;-63
2023/12/01 12:44:05;;;;;;;20.17;18.13;;;0.40;99.90;;;;;;5082650;28;20199;-63
2023/12/01 12:46:34;;;;;;;21.50;17.37;;;0.30;99.90;;;;;;5078932;28;20215;-63
2023/12/01 12:49:08;;;;;;;23.20;18.67;;;0.40;99.90;;;;;;5062397;28;20522;-63